Time;durP1;ratioP1;P1;durP2;ratioP2;P2;SDS_P1;SDS_P2;PMS_P1;PMS_P2;Temp;Humidity;BMP_temperature;BMP_pressure;BME280_temperature;BME280_humidity;BME280_pressure;Samples;Min_cycle;Max_cycle;Signal;HPM_P1;HPM_P2
2022/06/10 00:03:01;;;;;;;1.10;0.97;;;21.90;44.20;;;;;;8334058;28;20049;-42
2022/06/10 00:07:02;;;;;;;0.88;0.88;;;21.90;44.20;;;;;;8333335;28;20044;-42
2022/06/10 00:11:05;;;;;;;1.52;0.98;;;21.90;44.20;;;;;;8333733;28;20049;-42
2022/06/10 00:15:07;;;;;;;1.63;1.00;;;21.90;44.20;;;;;;8333427;28;20080;-42
2022/06/10 00:19:07;;;;;;;1.90;1.08;;;21.90;44.20;;;;;;8333010;28;20058;-42
2022/06/10 00:23:09;;;;;;;2.27;1.17;;;21.90;44.20;;;;;;8333593;28;20095;-43
2022/06/10 00:27:09;;;;;;;1.17;0.90;;;21.90;44.20;;;;;;8333132;28;20040;-42
2022/06/10 00:31:10;;;;;;;2.83;1.10;;;21.90;44.20;;;;;;8332677;28;20033;-42
2022/06/10 00:35:13;;;;;;;1.02;0.93;;;21.90;44.20;;;;;;8333134;28;20449;-42
2022/06/10 00:39:13;;;;;;;0.82;0.80;;;21.80;44.20;;;;;;8332535;28;20034;-42
2022/06/10 00:43:16;;;;;;;2.67;1.03;;;21.80;44.20;;;;;;8333045;28;20540;-42
2022/06/10 00:47:19;;;;;;;1.98;1.02;;;21.80;44.20;;;;;;8332516;28;20326;-43
2022/06/10 00:51:31;;;;;;;0.85;0.85;;;21.80;44.20;;;;;;8332030;28;20037;-42
2022/06/10 00:55:32;;;;;;;1.20;1.00;;;21.80;44.20;;;;;;8332874;28;20518;-42
2022/06/10 00:59:40;;;;;;;1.23;1.10;;;21.80;44.20;;;;;;8332250;28;20087;-43
2022/06/10 01:03:41;;;;;;;3.22;1.30;;;21.80;44.20;;;;;;8331921;28;20037;-42
2022/06/10 01:07:46;;;;;;;2.08;1.38;;;21.80;44.20;;;;;;8338704;28;20119;-43
2022/06/10 01:12:12;;;;;;;1.48;0.95;;;21.70;44.20;;;;;;8322078;28;20049;-42
2022/06/10 01:16:39;;;;;;;1.10;1.00;;;21.70;44.20;;;;;;8299050;28;20111;-43
2022/06/10 01:21:06;;;;;;;3.03;1.27;;;21.70;44.20;;;;;;8299117;28;20046;-43
2022/06/10 01:25:44;;;;;;;1.15;0.90;;;21.70;44.20;;;;;;8298404;28;20532;-43
2022/06/10 01:30:06;;;;;;;3.05;0.95;;;21.70;44.20;;;;;;8298751;28;20050;-42
2022/06/10 01:34:28;;;;;;;1.20;1.00;;;21.70;44.20;;;;;;8310585;28;20057;-42
2022/06/10 01:38:43;;;;;;;1.05;0.95;;;21.70;44.20;;;;;;8298638;28;20053;-42
2022/06/10 01:42:53;;;;;;;1.27;1.10;;;21.70;44.20;;;;;;8297874;28;20068;-42
2022/06/10 01:47:03;;;;;;;1.42;1.13;;;21.70;44.20;;;;;;8298542;28;20034;-42
2022/06/10 01:51:19;;;;;;;1.65;1.10;;;21.60;44.10;;;;;;8298049;28;20038;-42
2022/06/10 01:55:30;;;;;;;2.05;1.40;;;21.60;44.10;;;;;;8297587;28;20050;-42
2022/06/10 01:59:40;;;;;;;;;;;21.60;44.10;;;;;;8298529;28;20042;-42
2022/06/10 02:04:19;;;;;;;2.25;1.65;;;21.60;44.10;;;;;;8297688;28;19941;-42
2022/06/10 02:08:29;;;;;;;2.15;1.00;;;21.60;44.20;;;;;;8297566;28;20034;-43
2022/06/10 02:12:35;;;;;;;3.70;1.23;;;21.60;44.20;;;;;;8344300;28;20131;-43
2022/06/10 02:16:41;;;;;;;1.35;1.13;;;21.60;44.10;;;;;;8329564;28;20133;-42
2022/06/10 02:20:50;;;;;;;1.30;1.10;;;21.60;44.10;;;;;;8297664;28;20056;-42
2022/06/10 02:24:58;;;;;;;1.70;1.30;;;21.50;44.10;;;;;;8296849;28;20467;-42
2022/06/10 02:29:02;;;;;;;1.75;1.17;;;21.50;44.10;;;;;;8297523;28;20117;-42
2022/06/10 02:33:03;;;;;;;1.30;1.10;;;21.50;44.10;;;;;;8296993;28;20045;-44
2022/06/10 02:37:24;;;;;;;2.15;1.20;;;21.50;44.10;;;;;;8296664;28;20495;-43
2022/06/10 02:41:35;;;;;;;;;;;21.50;44.10;;;;;;8297562;28;20040;-45
2022/06/10 02:45:53;;;;;;;1.83;1.20;;;21.50;44.10;;;;;;8296646;28;19925;-42
2022/06/10 02:49:54;;;;;;;1.30;1.20;;;21.50;44.10;;;;;;8297112;28;20042;-42
2022/06/10 02:53:56;;;;;;;1.90;1.15;;;21.50;44.10;;;;;;8297058;28;20133;-43
2022/06/10 03:02:25;;;;;;;1.83;1.20;;;21.40;44.10;;;;;;8301929;28;20286;-43
2022/06/10 03:06:31;;;;;;;2.95;1.30;;;21.40;44.10;;;;;;8296202;28;20050;-44
2022/06/10 03:10:40;;;;;;;1.88;1.15;;;21.40;44.10;;;;;;8296861;28;20121;-43
2022/06/10 03:14:51;;;;;;;2.25;1.10;;;21.40;44.10;;;;;;8296725;28;20092;-43
2022/06/10 03:19:16;;;;;;;1.15;1.00;;;21.40;44.10;;;;;;8296118;28;20034;-43
2022/06/10 03:23:35;;;;;;;1.40;1.20;;;21.40;44.00;;;;;;8296583;28;20038;-43
2022/06/10 03:28:04;;;;;;;2.45;1.30;;;21.40;44.10;;;;;;8296176;28;20455;-43
2022/06/10 03:32:12;;;;;;;3.35;1.10;;;21.40;44.00;;;;;;8302200;28;20050;-42
2022/06/10 03:36:21;;;;;;;3.05;1.08;;;21.40;44.00;;;;;;8301709;28;20368;-42
2022/06/10 03:40:26;;;;;;;1.65;1.20;;;21.40;44.10;;;;;;8302049;28;20126;-43
2022/06/10 03:44:27;;;;;;;1.27;1.17;;;21.30;44.00;;;;;;8302348;28;20037;-44
2022/06/10 03:48:31;;;;;;;1.52;1.10;;;21.30;44.00;;;;;;8301366;28;20125;-43
2022/06/10 03:52:35;;;;;;;2.17;0.95;;;21.30;44.00;;;;;;8301494;28;20046;-43
2022/06/10 03:56:36;;;;;;;1.67;0.90;;;21.30;44.00;;;;;;8301706;28;20038;-42
2022/06/10 04:00:37;;;;;;;1.52;1.20;;;21.30;44.00;;;;;;8301267;28;20045;-42
2022/06/10 04:04:38;;;;;;;1.77;0.80;;;21.30;44.00;;;;;;8301817;28;20061;-42
2022/06/10 04:08:39;;;;;;;1.08;0.95;;;21.30;44.00;;;;;;8301376;28;20037;-42
2022/06/10 04:12:39;;;;;;;2.00;1.30;;;21.30;44.00;;;;;;8300417;28;20045;-42
2022/06/10 04:16:40;;;;;;;1.27;1.07;;;21.30;44.00;;;;;;8301038;28;20391;-43
2022/06/10 04:20:41;;;;;;;1.27;1.17;;;21.30;44.00;;;;;;8300924;28;20038;-42
2022/06/10 04:24:41;;;;;;;1.35;1.05;;;21.30;44.00;;;;;;8300588;28;20403;-42
2022/06/10 04:28:42;;;;;;;1.03;0.70;;;21.40;44.00;;;;;;8300883;28;20499;-42
2022/06/10 04:32:43;;;;;;;2.37;1.30;;;21.40;44.00;;;;;;8300591;28;20081;-42
2022/06/10 04:36:43;;;;;;;1.43;1.00;;;21.50;43.90;;;;;;8299921;28;20273;-42
2022/06/10 04:40:44;;;;;;;2.40;0.90;;;21.50;43.90;;;;;;8299453;28;20269;-42
2022/06/10 04:44:44;;;;;;;1.42;0.90;;;21.60;43.90;;;;;;8300197;28;20030;-42
2022/06/10 04:48:45;;;;;;;1.10;0.73;;;21.60;43.80;;;;;;8299652;28;20184;-42
2022/06/10 04:52:45;;;;;;;1.30;0.97;;;21.60;43.70;;;;;;8299889;28;20146;-42
2022/06/10 04:56:46;;;;;;;1.33;1.23;;;21.60;43.60;;;;;;8299993;28;20077;-42
2022/06/10 05:00:51;;;;;;;1.07;0.80;;;21.70;43.70;;;;;;8299291;28;20029;-42
2022/06/10 05:04:51;;;;;;;1.40;1.15;;;21.70;43.60;;;;;;8300251;28;20046;-42
2022/06/10 05:08:52;;;;;;;1.60;1.30;;;21.70;43.60;;;;;;8299275;28;20042;-42
2022/06/10 05:12:52;;;;;;;1.20;0.93;;;21.70;43.60;;;;;;8298739;28;20085;-42
2022/06/10 05:16:53;;;;;;;2.00;0.93;;;21.70;43.50;;;;;;8299126;28;20030;-42
2022/06/10 05:20:54;;;;;;;1.20;0.90;;;21.80;43.50;;;;;;8297669;28;20022;-42
2022/06/10 05:24:54;;;;;;;1.50;0.90;;;21.80;43.20;;;;;;8298670;28;20376;-42
2022/06/10 05:28:56;;;;;;;0.87;0.87;;;21.90;42.90;;;;;;8298764;28;20037;-42
2022/06/10 05:32:57;;;;;;;1.40;1.10;;;22.10;42.70;;;;;;8298374;28;20065;-42
2022/06/10 05:36:58;;;;;;;1.48;0.90;;;22.10;42.60;;;;;;8297891;28;20394;-41
2022/06/10 05:42:04;;;;;;;1.97;1.07;;;22.10;42.60;;;;;;8298512;28;20033;-41
2022/06/10 05:45:21;;;;;;;2.47;0.90;;;22.00;42.60;;;;;;8298034;28;20042;-42
2022/06/10 05:49:22;;;;;;;1.33;0.95;;;22.00;42.80;;;;;;8297911;28;20059;-41
2022/06/10 05:53:23;;;;;;;1.27;0.90;;;21.90;42.90;;;;;;8297846;28;20403;-42
2022/06/10 05:57:24;;;;;;;1.37;0.87;;;21.90;43.00;;;;;;8297379;28;20038;-42
2022/06/10 06:01:25;;;;;;;1.05;0.93;;;21.80;43.00;;;;;;8297925;28;20033;-42
2022/06/10 06:05:26;;;;;;;3.03;0.90;;;21.80;43.10;;;;;;8298399;28;20042;-42
2022/06/10 06:09:27;;;;;;;1.13;0.82;;;21.70;43.10;;;;;;8297197;28;20045;-42
2022/06/10 06:13:27;;;;;;;1.70;0.88;;;21.70;43.20;;;;;;8297640;28;20073;-43
2022/06/10 06:17:28;;;;;;;1.30;0.83;;;21.70;43.20;;;;;;8297258;28;20057;-42
2022/06/10 06:21:28;;;;;;;0.90;0.90;;;21.70;43.30;;;;;;8296820;28;20391;-42
2022/06/10 06:25:31;;;;;;;2.17;1.30;;;21.70;43.30;;;;;;8297342;28;20483;-43
2022/06/10 06:29:32;;;;;;;2.13;1.23;;;21.60;43.30;;;;;;8297149;28;20041;-43
2022/06/10 06:33:33;;;;;;;0.93;0.80;;;21.60;43.30;;;;;;8296605;28;20050;-43
2022/06/10 06:37:33;;;;;;;1.87;1.30;;;21.60;43.30;;;;;;8296918;28;20033;-42
2022/06/10 06:41:34;;;;;;;1.13;1.03;;;21.60;43.40;;;;;;8296884;28;20627;-42
2022/06/10 06:45:35;;;;;;;0.85;0.85;;;21.60;43.40;;;;;;8296765;28;20257;-42
2022/06/10 06:49:35;;;;;;;1.15;1.05;;;21.60;43.40;;;;;;8296877;28;20034;-42
2022/06/10 06:53:36;;;;;;;1.10;0.63;;;21.60;43.40;;;;;;8296617;28;20046;-43
2022/06/10 06:57:37;;;;;;;1.35;0.80;;;21.60;43.40;;;;;;8296225;28;20502;-42
2022/06/10 07:01:38;;;;;;;1.50;1.17;;;21.60;43.40;;;;;;8296741;28;20061;-42
2022/06/10 07:05:38;;;;;;;1.80;1.00;;;21.60;43.40;;;;;;8306034;28;20284;-42
2022/06/10 07:09:39;;;;;;;1.27;0.90;;;21.60;43.40;;;;;;8335198;28;20052;-42
2022/06/10 07:13:39;;;;;;;1.90;0.90;;;21.60;43.40;;;;;;8335366;28;20048;-42
2022/06/10 07:17:40;;;;;;;2.20;1.40;;;21.60;43.40;;;;;;8335503;28;20078;-42
2022/06/10 07:21:40;;;;;;;0.87;0.87;;;21.60;43.50;;;;;;8334842;28;20117;-42
2022/06/10 07:25:41;;;;;;;0.70;0.70;;;21.60;43.40;;;;;;8335696;28;20803;-43
2022/06/10 07:29:42;;;;;;;1.75;1.40;;;21.60;43.50;;;;;;8335019;28;20509;-42
2022/06/10 07:33:42;;;;;;;0.77;0.70;;;21.60;43.50;;;;;;8334373;28;20087;-42
2022/06/10 07:37:43;;;;;;;0.97;0.93;;;21.60;43.50;;;;;;8334791;28;20034;-42
2022/06/10 07:42:01;;;;;;;2.30;1.07;;;21.60;43.60;;;;;;8334933;28;20037;-42
2022/06/10 07:46:04;;;;;;;1.35;1.10;;;21.60;43.60;;;;;;8334448;28;20091;-42
2022/06/10 07:50:05;;;;;;;1.67;0.90;;;21.60;43.50;;;;;;8334589;28;20038;-43
2022/06/10 07:54:06;;;;;;;1.27;0.80;;;21.60;43.50;;;;;;8334299;28;20410;-42
2022/06/10 07:58:07;;;;;;;0.83;0.83;;;21.70;43.60;;;;;;8333846;28;20042;-42
2022/06/10 08:02:09;;;;;;;2.08;0.90;;;21.60;43.50;;;;;;8334329;28;20037;-43
2022/06/10 08:06:12;;;;;;;1.90;0.95;;;21.60;43.50;;;;;;8334917;28;20061;-42
2022/06/10 08:10:19;;;;;;;1.50;1.38;;;21.70;43.60;;;;;;8333681;28;20041;-42
2022/06/10 08:14:20;;;;;;;2.50;1.10;;;21.70;43.60;;;;;;8332812;28;20533;-42
2022/06/10 08:18:21;;;;;;;1.10;0.98;;;21.70;43.60;;;;;;8333014;28;20042;-42
2022/06/10 08:22:34;;;;;;;1.00;0.90;;;21.70;43.60;;;;;;8333624;28;20034;-42
2022/06/10 08:26:35;;;;;;;1.10;0.80;;;21.70;43.60;;;;;;8333739;28;20111;-41
2022/06/10 08:30:36;;;;;;;1.25;1.08;;;21.70;43.60;;;;;;8332909;28;20390;-42
2022/06/10 08:34:42;;;;;;;1.08;0.88;;;21.70;43.60;;;;;;8333036;28;20063;-42
2022/06/10 08:38:42;;;;;;;1.95;0.88;;;21.70;43.60;;;;;;8333035;28;20124;-42
2022/06/10 08:42:43;;;;;;;1.00;0.90;;;21.80;43.70;;;;;;8332348;28;20033;-42
2022/06/10 08:47:00;;;;;;;1.13;1.02;;;21.80;43.70;;;;;;8333293;28;20033;-41
2022/06/10 08:51:23;;;;;;;1.15;1.05;;;21.80;43.70;;;;;;8332614;28;20513;-41
2022/06/10 08:55:45;;;;;;;1.17;1.00;;;21.80;43.70;;;;;;8332424;28;20453;-42
2022/06/10 08:59:48;;;;;;;1.02;0.80;;;21.80;43.60;;;;;;8332234;28;20053;-42
2022/06/10 09:04:09;;;;;;;1.15;1.05;;;21.80;43.60;;;;;;8331737;28;20443;-42
2022/06/10 09:08:17;;;;;;;1.08;0.80;;;21.80;43.60;;;;;;8332316;28;20120;-42
2022/06/10 09:12:38;;;;;;;2.08;1.10;;;21.90;43.70;;;;;;8331633;28;20049;-42
2022/06/10 09:16:59;;;;;;;3.80;1.13;;;21.90;43.60;;;;;;8332050;28;20037;-42
2022/06/10 09:21:24;;;;;;;1.08;0.95;;;21.90;43.60;;;;;;8331869;28;20037;-41
2022/06/10 09:25:39;;;;;;;1.15;0.80;;;21.90;43.60;;;;;;8331345;28;20032;-42
2022/06/10 09:29:40;;;;;;;0.95;0.80;;;21.90;43.60;;;;;;8331529;28;20490;-42
2022/06/10 09:33:58;;;;;;;1.30;1.00;;;21.90;43.60;;;;;;8330883;28;20043;-41
2022/06/10 09:38:13;;;;;;;1.83;1.02;;;22.00;43.60;;;;;;8331072;28;20276;-42
2022/06/10 09:42:35;;;;;;;1.65;1.30;;;22.00;43.60;;;;;;8330905;28;20033;-41
2022/06/10 09:47:00;;;;;;;1.30;0.80;;;22.00;43.60;;;;;;8331342;28;20107;-42
2022/06/10 09:51:17;;;;;;;1.25;0.93;;;22.00;43.60;;;;;;8330863;28;20045;-42
2022/06/10 09:55:44;;;;;;;1.35;0.88;;;22.10;43.60;;;;;;8330275;28;20049;-41
2022/06/10 09:59:55;;;;;;;1.50;0.90;;;22.10;43.60;;;;;;8330666;28;20486;-42
2022/06/10 10:04:23;;;;;;;1.77;1.52;;;22.10;43.60;;;;;;8328687;28;20037;-42
2022/06/10 10:08:50;;;;;;;1.27;1.10;;;22.10;43.50;;;;;;8330218;28;20099;-42
2022/06/10 10:13:26;;;;;;;1.60;1.30;;;22.10;43.50;;;;;;8329761;28;20045;-42
2022/06/10 10:17:57;;;;;;;1.50;1.00;;;22.10;43.50;;;;;;8330515;28;20041;-43
2022/06/10 10:22:16;;;;;;;;;;;22.20;43.50;;;;;;8330443;28;20069;-42
2022/06/10 10:26:32;;;;;;;1.40;1.30;;;22.20;43.50;;;;;;8330228;28;20304;-41
2022/06/10 10:30:42;;;;;;;1.70;1.00;;;22.20;43.40;;;;;;8329642;28;20474;-41
2022/06/10 10:34:48;;;;;;;2.78;1.20;;;22.30;43.50;;;;;;8329808;28;20049;-41
2022/06/10 10:38:49;;;;;;;1.30;1.20;;;22.30;43.40;;;;;;8329198;28;20091;-41
2022/06/10 10:42:54;;;;;;;2.42;1.55;;;22.30;43.40;;;;;;8329524;28;20037;-41
2022/06/10 10:47:09;;;;;;;3.78;1.25;;;22.30;43.40;;;;;;8329620;28;20048;-41
2022/06/10 10:51:10;;;;;;;1.55;1.20;;;22.30;43.30;;;;;;8329529;28;20049;-41
2022/06/10 10:55:13;;;;;;;1.20;1.10;;;22.40;43.30;;;;;;8329021;28;20512;-41
2022/06/10 10:59:22;;;;;;;1.83;1.23;;;22.40;43.30;;;;;;8329417;28;20072;-41
2022/06/10 11:03:47;;;;;;;2.75;1.20;;;22.40;43.20;;;;;;8328865;28;20113;-41
2022/06/10 11:08:25;;;;;;;1.50;1.25;;;22.40;43.30;;;;;;8323775;28;20037;-41
2022/06/10 11:12:27;;;;;;;2.17;1.48;;;22.40;43.30;;;;;;8329044;28;20041;-41
2022/06/10 11:16:30;;;;;;;1.30;1.20;;;22.50;43.20;;;;;;8329254;28;20096;-42
2022/06/10 11:20:36;;;;;;;2.10;1.45;;;22.50;43.20;;;;;;8328386;28;20028;-42
2022/06/10 11:24:41;;;;;;;1.73;1.38;;;22.50;43.10;;;;;;8328156;28;20049;-42
2022/06/10 11:28:44;;;;;;;1.30;1.20;;;22.50;43.00;;;;;;8330195;28;20222;-41
2022/06/10 11:33:06;;;;;;;2.88;1.40;;;22.60;43.10;;;;;;8329104;28;20046;-41
2022/06/10 11:37:25;;;;;;;1.42;1.17;;;22.60;43.10;;;;;;8328033;28;20033;-41
2022/06/10 11:41:31;;;;;;;1.98;1.50;;;22.60;43.10;;;;;;8327786;28;20568;-40
2022/06/10 11:45:39;;;;;;;1.55;1.30;;;22.60;43.00;;;;;;8328379;28;20037;-41
2022/06/10 11:50:00;;;;;;;1.85;1.50;;;22.60;43.00;;;;;;8330452;28;20168;-41
2022/06/10 11:54:29;;;;;;;1.75;1.40;;;22.70;43.00;;;;;;8334451;28;20398;-41
2022/06/10 12:03:15;;;;;;;2.15;1.65;;;22.70;43.00;;;;;;8334172;28;20572;-42
2022/06/10 12:07:20;;;;;;;2.50;1.73;;;22.70;43.00;;;;;;8334535;28;20026;-42
2022/06/10 12:11:26;;;;;;;2.58;1.60;;;22.70;43.00;;;;;;8334644;28;20391;-42
2022/06/10 12:15:38;;;;;;;1.95;1.60;;;22.70;42.90;;;;;;8334077;28;20124;-41
2022/06/10 12:19:48;;;;;;;2.55;1.58;;;22.70;43.00;;;;;;8333966;28;20400;-42
2022/06/10 12:23:49;;;;;;;2.03;1.63;;;22.70;42.90;;;;;;8334324;28;20025;-42
2022/06/10 12:28:03;;;;;;;3.55;1.60;;;22.70;42.90;;;;;;8333797;28;20156;-42
2022/06/10 12:32:28;;;;;;;1.70;1.40;;;22.80;42.90;;;;;;8333806;28;20037;-42
2022/06/10 12:36:38;;;;;;;1.73;1.38;;;22.80;42.90;;;;;;8333978;28;20128;-41
2022/06/10 12:40:49;;;;;;;2.90;1.98;;;22.80;42.90;;;;;;8333466;28;20117;-41
2022/06/10 12:44:54;;;;;;;2.63;1.70;;;22.80;42.80;;;;;;8333741;28;20040;-41
2022/06/10 12:48:55;;;;;;;2.60;2.03;;;22.80;42.80;;;;;;8333011;28;20044;-41
2022/06/10 12:53:36;;;;;;;2.08;1.80;;;22.80;42.90;;;;;;8332952;28;20459;-41
2022/06/10 12:57:40;;;;;;;2.85;1.67;;;22.80;42.80;;;;;;8321389;28;20044;-41
2022/06/10 13:01:44;;;;;;;3.38;2.20;;;22.90;42.90;;;;;;8332546;28;20374;-41
2022/06/10 13:05:47;;;;;;;2.30;1.65;;;22.90;42.90;;;;;;8333004;28;20084;-41
2022/06/10 13:09:48;;;;;;;3.60;2.33;;;22.90;42.80;;;;;;8332460;28;20037;-41
2022/06/10 13:14:12;;;;;;;2.00;1.77;;;22.90;42.80;;;;;;8332229;28;20045;-41
2022/06/10 13:18:33;;;;;;;2.05;1.70;;;22.90;42.80;;;;;;8332247;28;20061;-41
2022/06/10 13:22:39;;;;;;;2.47;1.80;;;23.00;42.80;;;;;;8332428;28;20082;-42
2022/06/10 13:26:40;;;;;;;2.85;1.80;;;23.00;42.80;;;;;;8332183;28;20486;-42
2022/06/10 13:30:42;;;;;;;2.38;1.90;;;23.00;42.80;;;;;;8332418;28;20044;-42
2022/06/10 13:34:43;;;;;;;2.50;2.13;;;23.00;42.80;;;;;;8332056;28;20143;-42
2022/06/10 13:38:49;;;;;;;2.63;2.20;;;23.00;42.70;;;;;;8331642;28;20028;-42
2022/06/10 13:43:02;;;;;;;3.30;2.10;;;23.00;42.80;;;;;;8332180;28;20030;-42
2022/06/10 13:47:23;;;;;;;3.13;2.13;;;23.00;42.80;;;;;;8331840;28;20170;-42
2022/06/10 13:51:40;;;;;;;3.75;2.40;;;23.00;42.80;;;;;;8331239;28;20107;-42
2022/06/10 13:55:45;;;;;;;2.67;1.95;;;23.00;42.80;;;;;;8331183;28;20045;-42
2022/06/10 13:59:58;;;;;;;3.28;2.45;;;23.00;43.30;;;;;;8331656;28;20098;-42
2022/06/10 14:04:09;;;;;;;2.83;2.17;;;23.00;42.70;;;;;;8331231;28;20060;-42
2022/06/10 14:08:16;;;;;;;2.90;1.95;;;23.10;42.70;;;;;;8331344;28;20091;-42
2022/06/10 14:12:27;;;;;;;3.63;2.55;;;23.10;42.70;;;;;;8330373;28;20586;-42
2022/06/10 14:16:31;;;;;;;3.63;2.57;;;23.10;42.70;;;;;;8330562;28;20041;-42
2022/06/10 14:20:35;;;;;;;3.58;2.47;;;23.10;42.60;;;;;;8330911;28;20491;-42
2022/06/10 14:24:36;;;;;;;2.67;2.25;;;23.10;42.60;;;;;;8330426;28;20025;-42
2022/06/10 14:28:43;;;;;;;2.97;2.30;;;23.20;42.70;;;;;;8329039;28;20762;-42
2022/06/10 14:33:15;;;;;;;2.53;2.10;;;23.10;42.60;;;;;;8330264;28;20413;-42
2022/06/10 14:37:30;;;;;;;;;;;23.20;42.70;;;;;;8330610;28;20030;-42
2022/06/10 14:41:32;;;;;;;3.60;2.65;;;23.20;42.70;;;;;;8330312;28;19913;-42
2022/06/10 14:45:39;;;;;;;5.03;2.88;;;23.10;42.60;;;;;;8329989;28;20041;-42
2022/06/10 14:49:47;;;;;;;3.85;1.98;;;23.20;42.60;;;;;;8330298;28;20029;-40
2022/06/10 14:53:58;;;;;;;5.95;2.85;;;23.20;39.30;;;;;;8325445;28;20405;-39
2022/06/10 14:58:10;;;;;;;4.75;2.45;;;23.20;41.30;;;;;;8328604;28;20037;-40
2022/06/10 15:02:10;;;;;;;4.10;1.73;;;23.30;40.50;;;;;;8328995;28;20025;-40
2022/06/10 15:06:36;;;;;;;5.38;2.60;;;23.30;37.10;;;;;;8318088;28;20071;-40
2022/06/10 15:10:39;;;;;;;3.00;1.88;;;23.30;39.00;;;;;;8314891;28;20385;-39
2022/06/10 15:14:40;;;;;;;4.20;2.47;;;23.30;38.40;;;;;;8301028;28;20040;-40
2022/06/10 15:18:42;;;;;;;3.43;2.47;;;23.40;39.10;;;;;;8305899;28;20030;-38
2022/06/10 15:22:53;;;;;;;6.72;2.60;;;23.40;37.90;;;;;;8328943;28;20287;-39
2022/06/10 15:26:55;;;;;;;3.40;2.20;;;23.40;38.20;;;;;;8334295;28;20033;-40
2022/06/10 15:30:57;;;;;;;4.63;2.00;;;23.30;38.50;;;;;;8325433;28;20037;-39
2022/06/10 15:43:40;;;;;;;2.30;2.10;;;23.40;38.40;;;;;;8328882;28;20132;-39
2022/06/10 15:47:40;;;;;;;2.15;1.67;;;23.40;37.90;;;;;;8334977;28;20419;-39
2022/06/10 15:51:47;;;;;;;3.00;1.60;;;23.40;37.60;;;;;;8334638;28;20045;-40
2022/06/10 16:00:19;;;;;;;2.58;1.35;;;23.40;38.30;;;;;;8333727;28;20041;-40
2022/06/10 16:04:24;;;;;;;2.70;1.50;;;23.40;36.30;;;;;;8312489;28;20029;-40
2022/06/10 16:08:24;;;;;;;3.28;1.50;;;23.50;36.20;;;;;;8332497;28;20093;-40
2022/06/10 16:16:48;;;;;;;3.80;1.00;;;23.50;38.00;;;;;;8319908;28;20319;-39
2022/06/10 16:20:50;;;;;;;1.43;1.00;;;23.50;37.70;;;;;;8328111;28;20057;-40
2022/06/10 16:24:50;;;;;;;1.60;1.17;;;23.50;35.70;;;;;;8333956;28;20374;-40
2022/06/10 16:28:54;;;;;;;4.20;1.23;;;23.60;37.90;;;;;;8323940;28;20030;-39
2022/06/10 16:32:55;;;;;;;1.65;1.00;;;23.50;37.70;;;;;;8321795;28;20077;-39
2022/06/10 16:36:55;;;;;;;3.00;1.10;;;23.50;36.80;;;;;;8316216;28;20107;-40
2022/06/10 16:40:57;;;;;;;11.88;1.35;;;23.50;37.30;;;;;;8322091;28;20133;-40
2022/06/10 16:44:59;;;;;;;10.65;1.60;;;23.50;38.10;;;;;;8322418;28;20033;-40
2022/06/10 16:49:00;;;;;;;3.22;1.20;;;23.50;37.70;;;;;;8333859;28;20463;-40
2022/06/10 16:53:01;;;;;;;;;;;23.50;36.40;;;;;;8332960;28;20486;-40
2022/06/10 16:57:06;;;;;;;2.23;1.00;;;23.50;37.50;;;;;;8329187;28;19976;-40
2022/06/10 17:01:09;;;;;;;4.75;1.48;;;23.60;37.20;;;;;;8308688;28;20034;-39
2022/06/10 17:05:17;;;;;;;5.28;1.98;;;23.50;37.50;;;;;;8332168;28;20017;-39
2022/06/10 17:09:18;;;;;;;10.05;1.83;;;23.50;37.40;;;;;;8332605;28;20083;-40
2022/06/10 17:13:24;;;;;;;11.85;1.20;;;23.50;36.80;;;;;;8331847;28;20124;-40
2022/06/10 17:17:26;;;;;;;8.77;1.27;;;23.50;36.00;;;;;;8331993;28;20031;-39
2022/06/10 17:21:29;;;;;;;23.00;2.85;;;23.40;35.80;;;;;;8329084;28;20547;-42
2022/06/10 17:25:38;;;;;;;14.18;1.95;;;23.40;36.30;;;;;;8319891;28;20052;-42
2022/06/10 17:29:39;;;;;;;18.35;1.83;;;23.40;38.20;;;;;;8331681;28;20030;-39
2022/06/10 17:33:46;;;;;;;8.85;1.55;;;23.40;37.00;;;;;;8331791;28;20114;-40
2022/06/10 17:37:47;;;;;;;7.20;1.55;;;23.40;36.90;;;;;;8331505;28;20117;-40
2022/06/10 17:41:51;;;;;;;8.80;1.40;;;23.40;37.00;;;;;;8331317;28;20033;-40
2022/06/10 17:45:52;;;;;;;6.68;1.48;;;23.40;37.80;;;;;;8331252;28;20041;-38
2022/06/10 17:49:54;;;;;;;5.05;2.00;;;23.40;38.30;;;;;;8330967;28;20166;-38
2022/06/10 17:53:54;;;;;;;8.60;1.90;;;23.40;38.10;;;;;;8330948;28;20029;-40
2022/06/10 17:57:56;;;;;;;5.75;1.88;;;23.40;38.60;;;;;;8298318;28;20076;-41
2022/06/10 18:01:57;;;;;;;7.82;1.90;;;23.40;38.90;;;;;;8302120;28;20029;-40
2022/06/10 18:06:00;;;;;;;3.25;1.30;;;23.40;39.00;;;;;;8297818;28;20471;-41
2022/06/10 18:10:00;;;;;;;5.15;1.25;;;23.40;39.00;;;;;;8297596;28;20022;-40
2022/06/10 18:18:22;;;;;;;10.63;1.70;;;23.40;39.40;;;;;;8308957;28;20068;-41
2022/06/10 18:22:24;;;;;;;5.38;1.60;;;23.40;39.60;;;;;;8316224;28;20319;-40
2022/06/10 18:26:29;;;;;;;10.98;2.05;;;23.50;39.80;;;;;;8329554;28;20470;-41
2022/06/10 18:30:31;;;;;;;9.25;1.92;;;23.50;39.80;;;;;;8329098;28;20021;-41
2022/06/10 18:34:33;;;;;;;4.45;1.35;;;23.40;39.90;;;;;;8328381;28;20042;-41
2022/06/10 18:38:34;;;;;;;6.50;1.42;;;23.40;40.00;;;;;;8329138;28;20029;-41
2022/06/10 18:42:34;;;;;;;12.55;1.80;;;23.40;40.00;;;;;;8328654;28;20037;-40
2022/06/10 18:46:35;;;;;;;4.43;1.37;;;23.40;40.10;;;;;;8329810;28;20042;-40
2022/06/10 18:50:36;;;;;;;6.05;1.42;;;23.40;40.10;;;;;;8330160;28;20832;-39
2022/06/10 18:54:39;;;;;;;3.22;1.60;;;23.40;40.60;;;;;;8330055;28;20037;-39
2022/06/10 18:58:40;;;;;;;7.60;1.88;;;23.40;40.10;;;;;;8330478;28;20048;-40
2022/06/10 19:02:41;;;;;;;4.50;1.58;;;23.40;40.20;;;;;;8336309;28;20025;-40
2022/06/10 19:06:41;;;;;;;4.80;1.48;;;23.40;40.30;;;;;;8336256;28;20124;-40
2022/06/10 19:10:43;;;;;;;4.10;1.40;;;23.30;40.30;;;;;;8335155;28;20033;-40
2022/06/10 19:14:46;;;;;;;4.88;1.30;;;23.30;40.30;;;;;;8336195;28;20346;-40
2022/06/10 19:18:52;;;;;;;2.65;1.30;;;23.30;40.40;;;;;;8335965;28;20029;-40
2022/06/10 19:22:56;;;;;;;2.13;1.30;;;23.30;40.40;;;;;;8335834;28;20033;-40
2022/06/10 19:27:00;;;;;;;3.92;1.40;;;23.30;40.50;;;;;;8335741;28;20092;-40
2022/06/10 19:31:04;;;;;;;4.22;1.27;;;23.30;40.50;;;;;;8336122;28;20083;-40
2022/06/10 19:35:23;;;;;;;3.05;1.50;;;23.30;40.60;;;;;;8335794;28;20478;-41
2022/06/10 19:39:24;;;;;;;2.28;1.23;;;23.20;40.60;;;;;;8335561;28;20029;-41
2022/06/10 19:47:55;;;;;;;4.75;2.13;;;23.20;40.60;;;;;;8335599;28;20520;-41
2022/06/10 19:51:56;;;;;;;2.05;1.50;;;23.20;40.70;;;;;;8335514;28;20030;-41
2022/06/10 19:56:07;;;;;;;2.92;1.48;;;23.20;40.70;;;;;;8335368;28;20040;-41
2022/06/10 20:00:08;;;;;;;4.20;1.33;;;23.20;40.70;;;;;;8335237;28;20112;-41
2022/06/10 20:04:21;;;;;;;2.17;1.25;;;23.20;40.80;;;;;;8334707;28;20347;-42
2022/06/10 20:08:24;;;;;;;2.67;1.38;;;23.20;40.80;;;;;;8334820;28;20096;-40
2022/06/10 20:12:26;;;;;;;2.47;1.10;;;23.20;41.10;;;;;;8335186;28;20075;-42
2022/06/10 20:16:28;;;;;;;5.60;1.27;;;23.10;40.80;;;;;;8334287;28;20021;-41
2022/06/10 20:20:35;;;;;;;3.72;1.63;;;23.10;40.80;;;;;;8334992;28;20382;-40
2022/06/10 20:24:35;;;;;;;2.67;1.20;;;23.10;40.90;;;;;;8334403;28;20371;-40
2022/06/10 20:28:37;;;;;;;2.57;1.60;;;23.10;40.90;;;;;;8334275;28;20104;-40
2022/06/10 20:32:37;;;;;;;3.00;1.40;;;23.10;40.90;;;;;;8334168;28;20029;-40
2022/06/10 20:36:38;;;;;;;2.70;1.37;;;23.00;40.90;;;;;;8334154;28;20510;-40
2022/06/10 20:40:39;;;;;;;;;;;23.10;41.00;;;;;;8334216;28;20033;-40
2022/06/10 20:44:40;;;;;;;3.63;1.40;;;23.10;41.00;;;;;;8334004;28;19909;-40
2022/06/10 20:48:45;;;;;;;1.55;1.17;;;23.00;41.00;;;;;;8333889;28;20076;-40
2022/06/10 20:52:47;;;;;;;2.03;1.30;;;23.00;41.00;;;;;;8333251;28;20453;-40
2022/06/10 20:56:48;;;;;;;1.85;1.42;;;23.00;41.00;;;;;;8333012;28;20029;-40
2022/06/10 21:00:50;;;;;;;2.28;1.23;;;23.00;41.10;;;;;;8333214;28;20029;-40
2022/06/10 21:09:13;;;;;;;1.85;1.10;;;23.00;41.10;;;;;;8333166;28;20334;-41
2022/06/10 21:13:13;;;;;;;1.77;1.20;;;23.00;41.10;;;;;;8332345;28;20379;-41
2022/06/10 21:17:42;;;;;;;1.53;1.10;;;23.00;41.10;;;;;;8332866;28;20026;-41
2022/06/10 21:21:44;;;;;;;2.17;1.42;;;23.00;41.10;;;;;;8331373;28;20284;-41
2022/06/10 21:25:45;;;;;;;1.30;1.15;;;23.00;41.20;;;;;;8332839;28;20390;-40
2022/06/10 21:29:46;;;;;;;;;;;22.90;41.20;;;;;;8332352;28;20033;-40
2022/06/10 21:33:58;;;;;;;3.10;1.47;;;22.90;41.10;;;;;;8332326;28;19968;-40
2022/06/10 21:38:03;;;;;;;1.95;1.27;;;22.90;41.20;;;;;;8331746;28;20033;-40
2022/06/10 21:46:28;;;;;;;2.00;1.23;;;22.90;41.20;;;;;;8331545;28;20182;-40
2022/06/10 21:50:52;;;;;;;2.30;1.40;;;22.90;41.30;;;;;;8332101;28;20025;-40
2022/06/10 21:54:52;;;;;;;1.75;1.20;;;22.90;41.20;;;;;;8331120;28;20037;-40
2022/06/10 21:58:57;;;;;;;1.17;1.08;;;22.90;41.30;;;;;;8331148;28;20026;-40
2022/06/10 22:02:58;;;;;;;1.88;1.33;;;22.90;41.30;;;;;;8330123;28;20026;-40
2022/06/10 22:07:04;;;;;;;1.95;0.98;;;22.90;41.30;;;;;;8329510;28;20036;-40
2022/06/10 22:11:05;;;;;;;1.30;1.17;;;22.80;41.20;;;;;;8331218;28;20030;-40